Time;durP1;ratioP1;P1;durP2;ratioP2;P2;SDS_P1;SDS_P2;PMS_P1;PMS_P2;Temp;Humidity;BMP_temperature;BMP_pressure;BME280_temperature;BME280_humidity;BME280_pressure;Samples;Min_cycle;Max_cycle;Signal;HPM_P1;HPM_P2
2022/12/30 00:01:17;;;;;;;5.67;1.50;;;;;;;8.06;100.00;96172.59;5035235;28;20205;-70
2022/12/30 00:03:44;;;;;;;7.63;2.10;;;;;;;8.04;100.00;96178.97;5036839;28;20205;-69
2022/12/30 00:06:15;;;;;;;4.87;1.40;;;;;;;8.17;100.00;96187.22;5037865;28;20212;-70
2022/12/30 00:08:47;;;;;;;6.03;1.50;;;;;;;8.05;100.00;96188.50;5037410;28;20221;-70
2022/12/30 00:11:16;;;;;;;3.10;1.33;;;;;;;8.06;100.00;96192.78;5037014;28;20216;-68
2022/12/30 00:33:09;;;;;;;0.90;0.50;;;;;;;8.07;100.00;96205.72;5037124;28;20259;-70
2022/12/30 00:35:38;;;;;;;0.90;0.50;;;;;;;7.98;100.00;96211.09;5037761;28;20604;-71
2022/12/30 00:38:05;;;;;;;0.77;0.50;;;;;;;7.83;100.00;96210.13;5038648;28;20592;-69
2022/12/30 00:40:31;;;;;;;0.43;0.40;;;;;;;7.84;100.00;96201.28;5038141;28;20229;-71
2022/12/30 00:43:09;;;;;;;1.07;0.50;;;;;;;7.66;100.00;96208.44;5038524;28;20211;-71
2022/12/30 00:45:38;;;;;;;2.93;0.70;;;;;;;7.82;100.00;96210.28;5037245;28;20205;-68
2022/12/30 00:56:19;;;;;;;0.40;0.30;;;;;;;7.67;100.00;96215.31;5038011;28;20251;-70
2022/12/30 00:58:45;;;;;;;0.60;0.50;;;;;;;7.82;100.00;96223.41;5037928;28;20209;-69
2022/12/30 01:01:12;;;;;;;0.47;0.40;;;;;;;7.79;100.00;96224.53;5037953;28;20606;-70
2022/12/30 01:03:39;;;;;;;0.60;0.40;;;;;;;7.88;100.00;96224.38;5037828;28;20252;-68
2022/12/30 01:06:07;;;;;;;2.17;0.60;;;;;;;7.76;100.00;96224.84;5035932;28;20209;-69
2022/12/30 01:08:35;;;;;;;0.50;0.50;;;;;;;7.70;100.00;96236.00;5036905;28;20247;-71
2022/12/30 01:11:05;;;;;;;0.70;0.50;;;;;;;7.89;100.00;96244.41;5037510;28;20235;-71
2022/12/30 01:13:32;;;;;;;1.80;0.60;;;;;;;7.80;100.00;96241.91;5036467;28;20209;-70
2022/12/30 01:15:58;;;;;;;1.23;1.13;;;;;;;7.81;100.00;96242.72;5036737;28;21398;-68
2022/12/30 01:18:25;;;;;;;0.60;0.40;;;;;;;7.54;100.00;96243.78;5037770;28;20209;-71
2022/12/30 01:20:53;;;;;;;0.40;0.40;;;;;;;7.64;100.00;96241.06;5037501;28;20243;-71
2022/12/30 01:23:19;;;;;;;0.40;0.40;;;;;;;7.63;100.00;96255.94;5036916;28;20216;-69
2022/12/30 01:25:46;;;;;;;0.60;0.60;;;;;;;7.55;100.00;96255.91;5037201;28;20201;-70
2022/12/30 01:28:12;;;;;;;0.40;0.30;;;;;;;7.55;100.00;96255.91;5036576;28;20225;-69
2022/12/30 01:30:39;;;;;;;0.30;0.30;;;;;;;7.59;100.00;96254.63;5036615;28;20221;-70
2022/12/30 01:33:05;;;;;;;0.30;0.30;;;;;;;7.40;100.00;96254.06;5037620;28;20205;-70
2022/12/30 01:35:32;;;;;;;0.37;0.30;;;;;;;7.49;100.00;96258.34;5035890;28;20200;-69
2022/12/30 01:38:00;;;;;;;0.40;0.40;;;;;;;7.60;100.00;96264.13;5036576;28;20206;-69
2022/12/30 01:40:27;;;;;;;0.47;0.40;;;;;;;7.43;100.00;96269.47;5037061;28;20279;-71
2022/12/30 01:42:53;;;;;;;1.17;0.50;;;;;;;7.37;100.00;96270.91;5037116;28;20228;-70
2022/12/30 01:45:22;;;;;;;0.43;0.40;;;;;;;7.54;100.00;96270.00;5035917;28;20215;-71
2022/12/30 01:47:53;;;;;;;0.40;0.37;;;;;;;7.49;100.00;96264.41;5036585;28;20658;-69
2022/12/30 01:50:31;;;;;;;0.43;0.30;;;;;;;7.36;100.00;96269.28;5036867;28;20229;-70
2022/12/30 01:53:03;;;;;;;0.40;0.40;;;;;;;7.38;100.00;96262.09;5036767;28;20201;-70
2022/12/30 01:55:34;;;;;;;0.30;0.30;;;;;;;7.40;100.00;96270.59;5036026;28;20204;-69
2022/12/30 01:58:05;;;;;;;0.53;0.40;;;;;;;7.35;100.00;96267.63;5036871;28;20205;-70
2022/12/30 02:00:31;;;;;;;0.30;0.30;;;;;;;7.32;100.00;96269.75;5036171;28;20729;-71
2022/12/30 02:02:58;;;;;;;0.50;0.50;;;;;;;7.32;100.00;96260.06;5036475;28;20208;-70
2022/12/30 02:05:29;;;;;;;0.40;0.40;;;;;;;7.41;100.00;96264.38;5035678;28;20579;-71
2022/12/30 02:08:05;;;;;;;1.03;0.40;;;;;;;7.41;100.00;96264.38;5036326;28;20221;-71
2022/12/30 02:10:33;;;;;;;1.53;0.30;;;;;;;7.44;100.00;96266.69;5036146;28;20221;-71
2022/12/30 02:13:00;;;;;;;0.40;0.30;;;;;;;7.31;100.00;96253.19;5036766;28;20208;-70
2022/12/30 02:15:30;;;;;;;6.57;0.50;;;;;;;7.41;100.00;96256.50;5035347;28;20764;-71
2022/12/30 02:18:06;;;;;;;2.40;0.60;;;;;;;7.50;100.00;96245.09;5036615;28;20217;-68
2022/12/30 02:21:05;;;;;;;0.83;0.50;;;;;;;7.51;100.00;96251.97;5036916;28;20278;-69
2022/12/30 02:24:01;;;;;;;0.67;0.50;;;;;;;7.55;100.00;96240.19;5040061;28;20205;-69
2022/12/30 02:27:07;;;;;;;0.90;0.53;;;;;;;7.51;100.00;96251.13;5040354;28;20213;-70
2022/12/30 02:30:14;;;;;;;3.87;0.47;;;;;;;7.56;100.00;96257.56;5022519;28;20232;-68
2022/12/30 02:32:52;;;;;;;0.93;0.50;;;;;;;7.49;100.00;96246.06;5040132;28;20201;-70
2022/12/30 02:35:23;;;;;;;0.37;0.37;;;;;;;7.52;100.00;96258.03;5039488;28;20208;-68
2022/12/30 02:37:57;;;;;;;2.00;0.60;;;;;;;7.49;100.00;96267.03;5040149;28;20212;-70
2022/12/30 02:44:36;;;;;;;0.53;0.40;;;;;;;7.44;100.00;96276.34;5039313;28;20735;-70
2022/12/30 02:46:06;;;;;;;1.30;0.40;;;;;;;7.43;100.00;96275.53;5039670;28;21324;-70
2022/12/30 02:48:37;;;;;;;0.30;0.30;;;;;;;7.32;100.00;96288.91;5039984;28;20444;-71
2022/12/30 02:53:49;;;;;;;1.87;0.30;;;;;;;7.21;100.00;96290.97;5039038;28;20232;-71
2022/12/30 02:56:16;;;;;;;0.60;0.50;;;;;;;7.23;100.00;96285.56;5039573;28;20221;-71
2022/12/30 02:58:47;;;;;;;0.30;0.30;;;;;;;7.40;100.00;96283.69;5039938;28;20205;-71
2022/12/30 03:04:16;;;;;;;0.50;0.50;;;;;;;7.43;100.00;96288.66;5036296;28;20282;-71
2022/12/30 03:06:58;;;;;;;1.20;0.40;;;;;;;7.41;100.00;96297.66;5039522;28;20219;-68
2022/12/30 03:09:38;;;;;;;4.00;0.80;;;;;;;7.42;100.00;96299.25;5039309;28;20853;-72
2022/12/30 03:12:14;;;;;;;0.50;0.50;;;;;;;7.46;100.00;96298.81;5039296;28;20193;-68
2022/12/30 03:14:46;;;;;;;2.20;0.40;;;;;;;7.37;100.00;96306.81;5038594;28;20693;-68
2022/12/30 03:17:17;;;;;;;0.67;0.50;;;;;;;7.43;100.00;96307.00;5039551;28;20252;-68
2022/12/30 03:19:50;;;;;;;2.97;0.60;;;;;;;7.42;100.00;96307.13;5039163;28;20567;-69
2022/12/30 03:27:47;;;;;;;1.60;0.50;;;;;;;7.33;100.00;96308.91;5038820;28;20644;-69
2022/12/30 03:30:16;;;;;;;0.90;0.47;;;;;;;7.29;100.00;96301.50;5039917;28;20248;-70
2022/12/30 03:32:43;;;;;;;0.60;0.53;;;;;;;7.28;100.00;96299.88;5038167;28;20201;-70
2022/12/30 03:35:11;;;;;;;0.30;0.30;;;;;;;7.26;100.00;96293.97;5037922;28;20756;-68
2022/12/30 03:37:42;;;;;;;0.63;0.40;;;;;;;7.13;100.00;96284.84;5038692;28;20205;-68
2022/12/30 03:40:13;;;;;;;0.33;0.33;;;;;;;7.07;100.00;96294.16;5039015;28;20225;-69
2022/12/30 03:42:39;;;;;;;0.27;0.27;;;;;;;6.97;100.00;96301.28;5038878;28;20207;-68
2022/12/30 03:45:07;;;;;;;1.20;0.40;;;;;;;7.10;100.00;96295.66;5037975;28;20761;-68
2022/12/30 03:47:34;;;;;;;0.30;0.30;;;;;;;6.87;100.00;96299.75;5038939;28;20233;-71
2022/12/30 03:50:00;;;;;;;1.17;0.70;;;;;;;6.93;100.00;96291.28;5038499;28;20225;-70
2022/12/30 03:52:28;;;;;;;0.30;0.30;;;;;;;7.06;100.00;96291.69;5038724;28;20201;-68
2022/12/30 03:54:55;;;;;;;0.40;0.40;;;;;;;6.91;100.00;96298.47;5038347;28;20208;-70
2022/12/30 03:57:21;;;;;;;0.97;0.50;;;;;;;6.81;100.00;96295.13;5038098;28;20224;-71
2022/12/30 03:59:47;;;;;;;0.50;0.37;;;;;;;6.93;100.00;96296.53;5038872;28;20232;-71
2022/12/30 04:02:14;;;;;;;0.70;0.40;;;;;;;6.97;100.00;96296.06;5039039;28;20225;-70
2022/12/30 04:04:41;;;;;;;0.47;0.30;;;;;;;6.79;100.00;96299.69;5038029;28;20208;-68
2022/12/30 04:07:07;;;;;;;0.40;0.40;;;;;;;6.83;100.00;96290.56;5037055;28;20213;-68
2022/12/30 04:09:35;;;;;;;1.50;0.50;;;;;;;6.94;100.00;96299.00;5038352;28;20229;-71
2022/12/30 04:12:01;;;;;;;0.50;0.50;;;;;;;6.84;100.00;96300.88;5038898;28;20216;-68
2022/12/30 04:14:28;;;;;;;1.03;0.47;;;;;;;6.82;100.00;96307.25;5037648;28;20209;-70
2022/12/30 04:16:55;;;;;;;0.60;0.50;;;;;;;6.88;100.00;96304.03;5038510;28;20571;-71
2022/12/30 04:19:22;;;;;;;0.77;0.43;;;;;;;6.82;100.00;96297.59;5038489;28;20221;-67
2022/12/30 04:21:48;;;;;;;2.47;0.43;;;;;;;6.77;100.00;96306.88;5038073;28;20217;-70
2022/12/30 04:24:15;;;;;;;0.40;0.40;;;;;;;6.72;100.00;96309.13;5037202;28;20872;-71
2022/12/30 04:26:43;;;;;;;1.50;0.40;;;;;;;6.72;100.00;96311.75;5038205;28;20201;-70
2022/12/30 04:29:09;;;;;;;0.40;0.40;;;;;;;6.66;100.00;96310.56;5035599;28;20253;-70
2022/12/30 04:31:36;;;;;;;1.13;0.40;;;;;;;6.70;100.00;96308.47;5038062;28;20201;-69
2022/12/30 04:34:02;;;;;;;0.50;0.50;;;;;;;6.67;100.00;96308.78;5037046;28;20201;-68
2022/12/30 04:36:29;;;;;;;2.37;0.60;;;;;;;6.54;100.00;96310.94;5038125;28;20647;-71
2022/12/30 04:38:55;;;;;;;3.03;0.40;;;;;;;6.58;100.00;96314.94;5038053;28;20200;-68
2022/12/30 04:41:22;;;;;;;3.30;0.50;;;;;;;6.62;100.00;96315.44;5039020;28;20267;-68
2022/12/30 04:43:50;;;;;;;0.60;0.40;;;;;;;6.70;100.00;96316.31;5037344;28;20610;-71
2022/12/30 04:46:16;;;;;;;0.43;0.40;;;;;;;6.52;100.00;96319.91;5037549;28;20205;-71
2022/12/30 04:48:42;;;;;;;1.30;0.50;;;;;;;6.52;100.00;96312.91;5037722;28;20197;-70
2022/12/30 04:51:09;;;;;;;0.60;0.40;;;;;;;6.53;100.00;96314.56;5037773;28;20205;-71
2022/12/30 04:53:35;;;;;;;1.27;0.60;;;;;;;6.48;100.00;96315.97;5037016;28;20197;-71
2022/12/30 04:56:02;;;;;;;0.67;0.40;;;;;;;6.45;100.00;96317.06;5037807;28;20209;-68
2022/12/30 04:58:28;;;;;;;1.23;0.43;;;;;;;6.43;100.00;96313.81;5037200;28;20216;-71
2022/12/30 05:00:56;;;;;;;0.33;0.30;;;;;;;6.41;100.00;96317.53;5037391;28;20228;-71
2022/12/30 05:03:23;;;;;;;0.90;0.50;;;;;;;6.27;100.00;96313.63;5037056;28;20205;-69
2022/12/30 05:05:49;;;;;;;0.40;0.40;;;;;;;6.32;100.00;96311.41;5037376;28;20893;-68
2022/12/30 05:08:16;;;;;;;3.73;0.77;;;;;;;6.28;100.00;96304.81;5036662;28;20315;-71
2022/12/30 05:10:42;;;;;;;2.20;1.20;;;;;;;6.44;100.00;96315.47;5037916;28;20224;-68
2022/12/30 05:13:09;;;;;;;1.87;0.80;;;;;;;6.55;100.00;96296.88;5037296;28;20221;-68
2022/12/30 05:15:35;;;;;;;0.50;0.50;;;;;;;6.63;100.00;96296.94;5035945;28;20205;-68
2022/12/30 05:18:03;;;;;;;1.60;0.60;;;;;;;6.78;100.00;96298.06;5037380;28;20212;-69
2022/12/30 05:20:30;;;;;;;11.90;1.93;;;;;;;6.67;100.00;96293.06;5036656;28;20221;-68
2022/12/30 05:22:56;;;;;;;2.53;1.13;;;;;;;6.71;100.00;96300.47;5037475;28;20204;-70
2022/12/30 05:28:07;;;;;;;0.80;0.60;;;;;;;6.79;100.00;96292.66;5037076;28;20688;-68
2022/12/30 05:30:33;;;;;;;0.90;0.70;;;;;;;6.80;100.00;96302.16;5037023;28;20239;-68
2022/12/30 05:33:00;;;;;;;0.90;0.70;;;;;;;6.90;100.00;96307.31;5036558;28;20206;-71
2022/12/30 05:35:28;;;;;;;0.83;0.60;;;;;;;6.94;100.00;96306.03;5036610;28;21026;-69
2022/12/30 05:37:54;;;;;;;1.10;0.60;;;;;;;6.93;100.00;96307.81;5036931;28;20209;-67
2022/12/30 05:40:21;;;;;;;1.50;0.70;;;;;;;7.01;100.00;96312.28;5036768;28;20228;-71
2022/12/30 05:42:48;;;;;;;3.50;0.80;;;;;;;7.01;100.00;96317.53;5036996;28;20201;-71
2022/12/30 05:45:14;;;;;;;3.67;1.10;;;;;;;7.07;100.00;96319.56;5036542;28;20209;-69
2022/12/30 05:47:41;;;;;;;6.93;2.27;;;;;;;7.09;100.00;96323.66;5036962;28;20209;-71
2022/12/30 05:50:08;;;;;;;6.70;2.27;;;;;;;7.17;100.00;96312.41;5036532;28;20232;-70
2022/12/30 05:52:36;;;;;;;6.80;3.00;;;;;;;7.17;100.00;96310.59;5037598;28;20209;-72
2022/12/30 05:55:02;;;;;;;20.80;6.33;;;;;;;7.10;100.00;96314.81;5035903;28;20693;-70
2022/12/30 05:57:29;;;;;;;4.73;2.33;;;;;;;6.91;100.00;96317.66;5035414;28;20216;-70
2022/12/30 05:59:55;;;;;;;5.67;2.80;;;;;;;6.97;100.00;96313.59;5037017;28;20213;-71
2022/12/30 06:02:22;;;;;;;2.23;1.20;;;;;;;6.79;100.00;96303.13;5037244;28;20212;-71
2022/12/30 06:04:48;;;;;;;3.50;1.70;;;;;;;6.89;100.00;96308.28;5035791;28;20209;-71
2022/12/30 06:07:14;;;;;;;6.60;2.60;;;;;;;7.10;100.00;96299.09;5036475;28;20699;-71
2022/12/30 06:09:42;;;;;;;10.17;5.13;;;;;;;7.19;100.00;96294.72;5036395;28;20610;-70
2022/12/30 06:12:09;;;;;;;7.57;4.57;;;;;;;7.21;100.00;96277.88;5036238;28;20205;-71
2022/12/30 06:14:35;;;;;;;1.90;1.63;;;;;;;6.94;100.00;96282.47;5035286;28;20202;-70
2022/12/30 06:17:02;;;;;;;2.37;1.60;;;;;;;7.02;100.00;96285.13;5036493;28;20204;-71
2022/12/30 06:19:28;;;;;;;1.50;1.07;;;;;;;6.80;100.00;96291.69;5035765;28;20229;-68
2022/12/30 06:21:55;;;;;;;3.10;1.30;;;;;;;7.02;100.00;96283.31;5036472;28;20205;-70
2022/12/30 06:24:21;;;;;;;1.53;1.30;;;;;;;7.17;100.00;96294.88;5035731;28;20200;-70
2022/12/30 06:26:49;;;;;;;1.67;1.43;;;;;;;7.21;100.00;96290.97;5036067;28;20202;-70
2022/12/30 06:29:16;;;;;;;1.03;0.77;;;;;;;6.91;100.00;96296.69;5036196;28;20225;-70
2022/12/30 06:31:42;;;;;;;1.10;0.80;;;;;;;6.97;100.00;96303.09;5036107;28;20211;-68
2022/12/30 06:34:09;;;;;;;1.30;0.80;;;;;;;7.07;100.00;96299.41;5035906;28;20212;-70
2022/12/30 06:36:35;;;;;;;8.33;2.03;;;;;;;7.13;100.00;96308.44;5036248;28;20209;-71
2022/12/30 06:39:02;;;;;;;0.70;0.70;;;;;;;7.10;100.00;96293.03;5035961;28;20965;-67
2022/12/30 06:41:28;;;;;;;0.83;0.83;;;;;;;7.06;100.00;96286.47;5036492;28;20231;-68
2022/12/30 06:43:56;;;;;;;1.37;1.13;;;;;;;7.02;100.00;96285.13;5035930;28;20739;-70
2022/12/30 06:46:22;;;;;;;8.00;1.77;;;;;;;6.92;100.00;96292.25;5036237;28;20209;-70
2022/12/30 06:48:49;;;;;;;25.63;5.47;;;;;;;6.80;100.00;96290.88;5036281;28;20205;-68
2022/12/30 06:51:15;;;;;;;3.17;1.63;;;;;;;6.78;100.00;96298.06;5035527;28;21197;-69
2022/12/30 06:53:42;;;;;;;3.47;1.53;;;;;;;6.83;100.00;96296.59;5035397;28;20236;-70
2022/12/30 06:56:08;;;;;;;2.03;1.40;;;;;;;6.78;100.00;96304.13;5036496;28;20224;-70
2022/12/30 06:58:35;;;;;;;12.77;4.33;;;;;;;6.77;100.00;96309.50;5035721;28;20212;-70
2022/12/30 07:01:03;;;;;;;12.37;4.03;;;;;;;6.90;100.00;96302.91;5036147;28;20232;-68
2022/12/30 07:03:29;;;;;;;8.43;3.53;;;;;;;6.84;100.00;96307.94;5035242;28;20236;-68
2022/12/30 07:05:56;;;;;;;16.30;4.10;;;;;;;6.82;100.00;96307.25;5035796;28;20205;-70
2022/12/30 07:08:22;;;;;;;16.40;5.43;;;;;;;6.77;100.00;96310.34;5036971;28;21072;-70
2022/12/30 07:10:49;;;;;;;20.20;6.87;;;;;;;6.85;100.00;96305.16;5039533;28;20232;-68
2022/12/30 07:13:15;;;;;;;13.03;5.07;;;;;;;6.82;100.00;96300.22;5039197;28;20216;-70
2022/12/30 07:15:42;;;;;;;9.67;4.53;;;;;;;6.86;100.00;96311.19;5039208;28;20201;-68
2022/12/30 07:18:10;;;;;;;7.97;2.47;;;;;;;6.99;100.00;96309.03;5039715;28;20201;-70
2022/12/30 07:20:38;;;;;;;5.27;2.10;;;;;;;6.86;100.00;96316.44;5038570;28;20224;-70
2022/12/30 07:23:04;;;;;;;8.03;3.40;;;;;;;7.06;100.00;96312.66;5036898;28;20278;-68
2022/12/30 07:25:31;;;;;;;4.67;2.53;;;;;;;7.05;100.00;96316.25;5035166;28;20216;-68
2022/12/30 07:27:59;;;;;;;5.13;2.17;;;;;;;7.08;100.00;96322.00;5038516;28;20209;-70
2022/12/30 07:30:26;;;;;;;1.20;1.00;;;;;;;7.06;100.00;96323.13;5038328;28;20256;-69
2022/12/30 07:32:53;;;;;;;3.33;1.50;;;;;;;7.07;100.00;96316.94;5038882;28;20201;-68
2022/12/30 07:35:22;;;;;;;5.13;2.60;;;;;;;7.16;100.00;96321.25;5038177;28;20209;-69
2022/12/30 07:37:48;;;;;;;6.77;3.37;;;;;;;7.18;100.00;96327.13;5038821;28;20283;-69
2022/12/30 07:40:15;;;;;;;12.40;3.97;;;;;;;7.12;100.00;96333.81;5039271;28;20225;-68
2022/12/30 07:42:41;;;;;;;11.83;5.63;;;;;;;7.16;100.00;96336.97;5039613;28;20202;-68
2022/12/30 07:45:09;;;;;;;15.37;4.03;;;;;;;7.07;100.00;96330.84;5038499;28;20232;-69
2022/12/30 07:47:36;;;;;;;21.97;4.93;;;;;;;7.08;100.00;96331.69;5038288;28;20201;-68
2022/12/30 07:50:03;;;;;;;15.47;4.47;;;;;;;7.21;100.00;96326.84;5038231;28;20610;-69
2022/12/30 07:52:32;;;;;;;14.93;4.03;;;;;;;7.28;100.00;96334.75;5038025;28;20209;-70
2022/12/30 07:54:58;;;;;;;6.67;2.80;;;;;;;7.14;100.00;96331.03;5038265;28;20197;-70
2022/12/30 07:57:25;;;;;;;10.47;2.50;;;;;;;7.17;100.00;96346.47;5038268;28;20205;-70
2022/12/30 07:59:51;;;;;;;9.63;4.50;;;;;;;7.05;100.00;96338.06;5038511;28;20209;-70
2022/12/30 08:02:18;;;;;;;5.87;3.07;;;;;;;7.42;100.00;96342.06;5036550;28;20201;-71
2022/12/30 08:04:44;;;;;;;3.00;1.97;;;;;;;7.53;100.00;96343.59;5034300;28;20205;-71
2022/12/30 08:07:11;;;;;;;5.30;2.00;;;;;;;7.61;100.00;96341.84;5037587;28;20209;-70
2022/12/30 08:09:39;;;;;;;2.63;1.67;;;;;;;7.65;100.00;96332.66;5037402;28;20217;-70
2022/12/30 08:12:05;;;;;;;4.93;1.73;;;;;;;7.45;100.00;96331.25;5037881;28;20212;-70
2022/12/30 08:14:32;;;;;;;4.87;2.23;;;;;;;7.22;100.00;96333.72;5036921;28;20201;-70
2022/12/30 08:16:58;;;;;;;6.13;2.07;;;;;;;7.43;100.00;96330.59;5037257;28;20197;-70
2022/12/30 08:19:25;;;;;;;2.67;1.87;;;;;;;7.41;100.00;96335.16;5037508;28;20224;-70
2022/12/30 08:21:51;;;;;;;3.27;2.00;;;;;;;7.42;100.00;96336.81;5037400;28;20205;-70
2022/12/30 08:24:18;;;;;;;4.63;2.63;;;;;;;7.45;100.00;96341.72;5035661;28;20205;-70
2022/12/30 08:26:46;;;;;;;7.50;2.60;;;;;;;7.61;100.00;96338.38;5037492;28;20216;-70
2022/12/30 08:29:12;;;;;;;6.50;2.67;;;;;;;7.45;100.00;96344.34;5037409;28;20320;-70
2022/12/30 08:31:39;;;;;;;4.13;2.13;;;;;;;7.58;100.00;96336.06;5036974;28;20225;-70
2022/12/30 08:34:06;;;;;;;2.47;1.57;;;;;;;7.60;100.00;96344.59;5037195;28;20221;-70
2022/12/30 08:36:32;;;;;;;3.20;1.33;;;;;;;7.52;100.00;96337.53;5038025;28;20739;-70
2022/12/30 08:39:01;;;;;;;3.00;1.37;;;;;;;7.70;100.00;96340.91;5036881;28;20228;-70
2022/12/30 08:41:30;;;;;;;1.80;1.37;;;;;;;7.78;100.00;96338.31;5037180;28;20205;-70
2022/12/30 08:43:59;;;;;;;2.53;1.30;;;;;;;7.94;100.00;96343.59;5036939;28;21134;-70
2022/12/30 08:46:28;;;;;;;1.33;1.23;;;;;;;7.91;100.00;96339.47;5037881;28;20205;-70
2022/12/30 08:48:54;;;;;;;3.17;1.40;;;;;;;7.90;100.00;96343.13;5036962;28;20205;-70
2022/12/30 08:51:21;;;;;;;1.60;1.17;;;;;;;7.88;100.00;96342.44;5037021;28;20275;-70
2022/12/30 08:53:48;;;;;;;3.13;1.50;;;;;;;7.69;100.00;96341.88;5036735;28;20993;-70
2022/12/30 08:56:17;;;;;;;2.27;0.80;;;;;;;7.79;100.00;96339.94;5037282;28;20217;-70
2022/12/30 08:58:44;;;;;;;2.70;1.30;;;;;;;7.92;100.00;96335.88;5036629;28;20212;-70
2022/12/30 09:01:13;;;;;;;1.27;0.93;;;;;;;7.91;100.00;96333.44;5038334;28;21126;-70
2022/12/30 09:03:41;;;;;;;1.40;1.00;;;;;;;7.89;100.00;96336.22;5036172;28;20206;-70
2022/12/30 09:06:08;;;;;;;2.47;1.50;;;;;;;8.03;100.00;96338.22;5036379;28;20696;-71
2022/12/30 09:08:36;;;;;;;4.77;1.17;;;;;;;7.70;100.00;96333.03;5037237;28;20208;-71
2022/12/30 09:11:04;;;;;;;4.63;2.43;;;;;;;7.95;100.00;96330.31;5037369;28;20240;-71
2022/12/30 09:13:31;;;;;;;6.83;2.40;;;;;;;7.99;100.00;96325.56;5036904;28;20202;-71
2022/12/30 09:15:59;;;;;;;3.53;2.10;;;;;;;8.04;100.00;96318.06;5036426;28;20526;-71
2022/12/30 09:18:26;;;;;;;2.43;1.70;;;;;;;8.13;100.00;96301.34;5036322;28;20275;-71
2022/12/30 09:20:53;;;;;;;3.77;2.00;;;;;;;8.01;100.00;96295.56;5036525;28;20213;-70
2022/12/30 09:23:20;;;;;;;1.47;1.07;;;;;;;7.90;100.00;96295.88;5036627;28;20674;-70
2022/12/30 09:25:46;;;;;;;2.47;1.70;;;;;;;8.18;100.00;96299.09;5035733;28;20212;-71
2022/12/30 09:28:13;;;;;;;1.50;1.00;;;;;;;8.02;100.00;96299.84;5034882;28;20967;-71
2022/12/30 09:30:39;;;;;;;5.30;2.03;;;;;;;8.19;100.00;96287.63;5036185;28;20229;-71
2022/12/30 09:33:06;;;;;;;2.03;1.40;;;;;;;8.31;100.00;96279.28;5036607;28;20205;-71
2022/12/30 09:35:34;;;;;;;4.87;1.20;;;;;;;8.48;100.00;96280.94;5035682;28;20552;-71
2022/12/30 09:38:01;;;;;;;3.13;1.40;;;;;;;8.31;100.00;96268.78;5035638;28;20212;-70
2022/12/30 09:40:44;;;;;;;3.23;1.47;;;;;;;8.55;100.00;96267.00;5035277;28;20222;-70
2022/12/30 09:43:18;;;;;;;3.03;1.60;;;;;;;8.58;100.00;96271.91;5034957;28;20205;-70
2022/12/30 09:46:12;;;;;;;4.10;1.30;;;;;;;8.52;100.00;96279.63;5035709;28;20205;-71
2022/12/30 09:48:42;;;;;;;2.97;1.43;;;;;;;8.94;100.00;96273.19;5036409;28;20299;-71
2022/12/30 09:51:15;;;;;;;2.30;1.20;;;;;;;9.55;100.00;96274.22;5036313;28;20233;-72
2022/12/30 09:53:50;;;;;;;4.47;1.67;;;;;;;9.57;100.00;96268.78;5035563;28;20205;-70
2022/12/30 09:56:21;;;;;;;2.67;1.17;;;;;;;9.77;100.00;96268.19;5036317;28;20212;-71
2022/12/30 09:58:48;;;;;;;1.93;1.20;;;;;;;9.97;98.79;96261.56;5034790;28;20205;-70
2022/12/30 10:01:23;;;;;;;1.63;1.10;;;;;;;9.96;97.46;96262.56;5036517;28;20224;-70
2022/12/30 10:03:52;;;;;;;2.70;1.33;;;;;;;9.79;97.63;96251.25;5035675;28;20282;-71
2022/12/30 10:06:25;;;;;;;2.47;1.53;;;;;;;9.93;96.82;96250.53;5035100;28;20205;-72
2022/12/30 10:09:16;;;;;;;5.10;2.03;;;;;;;9.34;97.89;96259.97;5036466;28;20893;-71
2022/12/30 10:11:54;;;;;;;2.73;1.40;;;;;;;9.39;98.56;96255.03;5025804;28;20229;-69
2022/12/30 10:14:28;;;;;;;2.43;1.30;;;;;;;9.12;100.00;96250.97;5036154;28;20209;-69
2022/12/30 10:17:07;;;;;;;2.73;1.33;;;;;;;9.17;100.00;96235.53;5035906;28;20215;-70
2022/12/30 10:19:48;;;;;;;2.53;1.37;;;;;;;9.14;100.00;96235.06;5036067;28;20234;-70
2022/12/30 10:22:25;;;;;;;2.73;1.30;;;;;;;9.20;100.00;96223.84;5036620;28;20617;-71
2022/12/30 10:25:03;;;;;;;2.73;1.30;;;;;;;9.23;100.00;96211.19;5035486;28;20208;-69
2022/12/30 10:27:41;;;;;;;1.43;1.10;;;;;;;9.35;100.00;96198.50;5035838;28;20220;-69
2022/12/30 10:30:14;;;;;;;2.47;1.30;;;;;;;9.28;100.00;96198.38;5032961;28;20229;-70
2022/12/30 10:32:47;;;;;;;1.27;1.03;;;;;;;9.32;100.00;96193.59;5035863;28;20216;-71
2022/12/30 10:35:19;;;;;;;1.87;1.20;;;;;;;9.26;100.00;96183.75;5035401;28;20220;-68
2022/12/30 10:37:50;;;;;;;1.73;0.97;;;;;;;9.43;99.12;96170.38;5034181;28;20452;-70
2022/12/30 10:40:18;;;;;;;2.23;1.17;;;;;;;9.46;100.00;96171.84;5033115;28;20255;-70
2022/12/30 10:43:01;;;;;;;1.53;1.03;;;;;;;9.51;98.96;96166.84;5037984;28;20205;-70
2022/12/30 10:45:46;;;;;;;1.27;0.83;;;;;;;9.71;96.81;96169.72;5037433;28;20201;-69
2022/12/30 10:48:39;;;;;;;1.00;0.90;;;;;;;9.41;99.05;96159.19;5039182;28;20773;-71
2022/12/30 10:51:07;;;;;;;1.80;0.90;;;;;;;9.17;98.36;96171.63;5039843;28;20232;-73
2022/12/30 10:53:34;;;;;;;1.90;0.90;;;;;;;9.37;97.58;96159.72;5040201;28;20197;-72
2022/12/30 10:56:03;;;;;;;1.23;0.80;;;;;;;9.54;97.24;96156.81;5038723;28;20212;-70
2022/12/30 10:58:36;;;;;;;1.40;0.90;;;;;;;9.51;96.55;96156.34;5038952;28;20201;-69
2022/12/30 11:01:02;;;;;;;1.97;1.17;;;;;;;9.45;96.10;96146.53;5040279;28;20225;-70
2022/12/30 11:03:37;;;;;;;2.67;1.00;;;;;;;9.62;95.72;96142.81;5038953;28;20212;-70
2022/12/30 11:06:20;;;;;;;1.57;1.10;;;;;;;9.70;96.84;96133.88;5038449;28;20315;-69
2022/12/30 11:08:48;;;;;;;3.33;1.40;;;;;;;9.70;96.40;96131.25;5038445;28;20204;-70
2022/12/30 11:11:15;;;;;;;2.60;1.20;;;;;;;9.69;95.30;96134.88;5039284;28;20240;-70
2022/12/30 11:16:28;;;;;;;4.60;1.27;;;;;;;9.88;96.14;96125.72;5039332;28;20297;-70
2022/12/30 11:18:55;;;;;;;1.07;0.70;;;;;;;9.98;95.95;96127.13;5038445;28;20224;-70
2022/12/30 11:21:26;;;;;;;3.00;1.07;;;;;;;9.77;94.86;96132.16;5036883;28;20201;-70
2022/12/30 11:23:56;;;;;;;1.93;1.30;;;;;;;9.91;94.94;96128.78;5037280;28;20216;-70
2022/12/30 11:26:25;;;;;;;4.50;1.00;;;;;;;9.83;94.19;96128.84;5038493;28;20209;-72
2022/12/30 11:28:55;;;;;;;1.90;1.00;;;;;;;9.86;94.91;96119.78;5036569;28;20201;-71
2022/12/30 11:31:22;;;;;;;4.17;1.53;;;;;;;9.94;94.12;96123.19;5037336;28;20772;-71
2022/12/30 11:33:52;;;;;;;4.50;1.77;;;;;;;9.98;93.59;96129.78;5034712;28;20225;-71
2022/12/30 11:36:33;;;;;;;2.40;1.10;;;;;;;10.09;93.97;96120.63;5034426;28;20209;-72
2022/12/30 11:39:25;;;;;;;3.07;1.00;;;;;;;10.15;95.73;96118.13;5036166;28;20594;-72
2022/12/30 11:41:54;;;;;;;1.43;0.83;;;;;;;10.20;94.04;96107.88;5037270;28;20197;-70
2022/12/30 11:44:23;;;;;;;2.37;1.10;;;;;;;10.11;94.13;96092.34;5037516;28;20201;-72
2022/12/30 11:46:52;;;;;;;1.13;0.80;;;;;;;10.23;93.44;96096.97;5037875;28;20319;-71
2022/12/30 11:49:25;;;;;;;1.53;1.07;;;;;;;10.18;94.67;96094.06;5038496;28;20221;-71
2022/12/30 11:51:54;;;;;;;2.47;1.03;;;;;;;10.32;93.14;96085.38;5038177;28;20209;-71
2022/12/30 11:54:25;;;;;;;0.63;0.60;;;;;;;10.26;93.11;96078.19;5036677;28;20205;-71
2022/12/30 11:56:53;;;;;;;1.97;0.90;;;;;;;10.30;92.63;96087.38;5038384;28;20219;-71
2022/12/30 11:59:24;;;;;;;3.17;1.20;;;;;;;10.23;91.71;96080.38;5037710;28;20229;-71
2022/12/30 12:01:53;;;;;;;1.90;0.80;;;;;;;10.34;90.62;96083.38;5038279;28;21084;-71
2022/12/30 12:04:40;;;;;;;2.10;1.10;;;;;;;10.41;91.31;96081.66;5038026;28;20205;-71
2022/12/30 12:07:20;;;;;;;1.37;0.97;;;;;;;10.49;90.67;96071.88;5039197;28;20201;-71
2022/12/30 12:09:55;;;;;;;2.13;1.00;;;;;;;10.52;91.26;96070.69;5038080;28;20237;-71
2022/12/30 12:12:27;;;;;;;1.77;1.00;;;;;;;10.60;90.48;96076.72;5037249;28;20325;-71
2022/12/30 12:15:04;;;;;;;2.00;1.00;;;;;;;10.64;91.68;96074.50;5038139;28;20201;-71
2022/12/30 12:17:43;;;;;;;1.27;0.93;;;;;;;10.59;91.77;96075.06;5037457;28;20209;-72
2022/12/30 12:20:19;;;;;;;4.27;0.90;;;;;;;10.48;93.29;96070.22;5037560;28;20229;-70
2022/12/30 12:22:57;;;;;;;3.77;1.10;;;;;;;10.57;92.58;96071.78;5037969;28;20755;-72
2022/12/30 12:25:33;;;;;;;3.83;1.27;;;;;;;10.59;92.42;96071.59;5037026;28;20680;-72
2022/12/30 12:28:00;;;;;;;3.03;1.03;;;;;;;10.72;92.27;96071.81;5038035;28;20201;-71
2022/12/30 12:30:39;;;;;;;2.37;1.37;;;;;;;10.87;90.89;96062.88;5037518;28;20237;-72
2022/12/30 12:33:14;;;;;;;2.97;1.90;;;;;;;10.61;92.91;96045.91;5035983;28;20745;-72